SKG791 CYHS-CYYB
Flight info
| Callsign | SKG791 |
|---|---|
| Flight time | 0h 29m |
| Altitude | 25000 |
| Route | DCT |
| Aircraft | C25B/M-SDE2E3FGHRWXY/LB1 |
Departure
| Time | 2026-05-04 00:53 |
|---|---|
| Airport | Hanover / Saugeen Municipal Airport (CYHS) |
Arrival
| Time | 2026-05-04 01:22 |
|---|---|
| Airport | North Bay Jack Garland Airport (CYYB) |
| Time | Latitude | Longitude | Altitude | Speed | Heading |
|---|---|---|---|---|---|
| 2026-05-04 00:50 | 44.16295 | -81.06085 | 942 ft | 0 kts | 7° |
| 2026-05-04 00:51 | 44.16318 | -81.06095 | 943 ft | 5 kts | 332° |
| 2026-05-04 00:52 | 44.16341 | -81.06141 | 944 ft | 0 kts | 272° |
| 2026-05-04 00:52 | 44.16342 | -81.06153 | 944 ft | 5 kts | 271° |
| 2026-05-04 00:52 | 44.16323 | -81.06220 | 944 ft | 13 kts | 188° |
| 2026-05-04 00:52 | 44.15838 | -81.06250 | 927 ft | 130 kts | 184° |
| 2026-05-04 00:53 | 44.14761 | -81.06058 | 1880 ft | 177 kts | 154° |
| 2026-05-04 00:53 | 44.14258 | -81.04327 | 3228 ft | 233 kts | 76° |
| 2026-05-04 00:53 | 44.15255 | -81.02485 | 4563 ft | 246 kts | 28° |
| 2026-05-04 00:53 | 44.16837 | -81.01720 | 6090 ft | 240 kts | 355° |
| 2026-05-04 00:54 | 44.18485 | -81.01630 | 7665 ft | 229 kts | 352° |
| 2026-05-04 00:54 | 44.20089 | -81.01567 | 8459 ft | 234 kts | 351° |
| 2026-05-04 00:54 | 44.21726 | -81.01476 | 9238 ft | 239 kts | 357° |
| 2026-05-04 00:54 | 44.23378 | -81.00980 | 10018 ft | 248 kts | 10° |
| 2026-05-04 00:55 | 44.24967 | -80.99931 | 10718 ft | 257 kts | 22° |
| 2026-05-04 00:55 | 44.26509 | -80.98695 | 11403 ft | 259 kts | 21° |
| 2026-05-04 00:55 | 44.28108 | -80.97520 | 12093 ft | 261 kts | 20° |
| 2026-05-04 00:55 | 44.29740 | -80.96376 | 12778 ft | 263 kts | 19° |
| 2026-05-04 00:56 | 44.31383 | -80.95211 | 13462 ft | 266 kts | 20° |
| 2026-05-04 00:56 | 44.33042 | -80.94022 | 14092 ft | 269 kts | 20° |
| 2026-05-04 00:56 | 44.34710 | -80.92821 | 14720 ft | 270 kts | 20° |
| 2026-05-04 00:56 | 44.36388 | -80.91622 | 15336 ft | 272 kts | 20° |
| 2026-05-04 00:57 | 44.38080 | -80.90406 | 15955 ft | 274 kts | 20° |
| 2026-05-04 00:57 | 44.39785 | -80.89188 | 16586 ft | 276 kts | 20° |
| 2026-05-04 00:57 | 44.41502 | -80.87950 | 17218 ft | 278 kts | 20° |
| 2026-05-04 00:57 | 44.43207 | -80.86731 | 17816 ft | 280 kts | 20° |
| 2026-05-04 00:58 | 44.44944 | -80.85477 | 18397 ft | 282 kts | 20° |
| 2026-05-04 00:58 | 44.46698 | -80.84219 | 18940 ft | 283 kts | 20° |
| 2026-05-04 00:58 | 44.48450 | -80.82951 | 19488 ft | 285 kts | 19° |
| 2026-05-04 00:58 | 44.50223 | -80.81683 | 20042 ft | 286 kts | 19° |
| 2026-05-04 00:59 | 44.52000 | -80.80393 | 20579 ft | 288 kts | 19° |
| 2026-05-04 00:59 | 44.53785 | -80.79111 | 21136 ft | 289 kts | 19° |
| 2026-05-04 00:59 | 44.55579 | -80.77814 | 21671 ft | 291 kts | 19° |
| 2026-05-04 00:59 | 44.57385 | -80.76511 | 22210 ft | 293 kts | 19° |
| 2026-05-04 01:00 | 44.59205 | -80.75196 | 22756 ft | 295 kts | 19° |
| 2026-05-04 01:00 | 44.61030 | -80.73871 | 23298 ft | 296 kts | 19° |
| 2026-05-04 01:00 | 44.62847 | -80.72552 | 23762 ft | 298 kts | 19° |
| 2026-05-04 01:00 | 44.64696 | -80.71224 | 24234 ft | 299 kts | 19° |
| 2026-05-04 01:01 | 44.66550 | -80.69881 | 24706 ft | 301 kts | 19° |
| 2026-05-04 01:01 | 44.68453 | -80.68499 | 24802 ft | 316 kts | 19° |
| 2026-05-04 01:01 | 44.70460 | -80.67053 | 24809 ft | 332 kts | 20° |
| 2026-05-04 01:01 | 44.72564 | -80.65520 | 24814 ft | 346 kts | 20° |
| 2026-05-04 01:02 | 44.74744 | -80.63928 | 24816 ft | 358 kts | 20° |
| 2026-05-04 01:02 | 44.76986 | -80.62295 | 24821 ft | 367 kts | 20° |
| 2026-05-04 01:02 | 44.79283 | -80.60622 | 24815 ft | 376 kts | 21° |
| 2026-05-04 01:02 | 44.81601 | -80.58919 | 24814 ft | 382 kts | 21° |
| 2026-05-04 01:03 | 44.83985 | -80.57195 | 24814 ft | 388 kts | 21° |
| 2026-05-04 01:03 | 44.86395 | -80.55430 | 24811 ft | 392 kts | 21° |
| 2026-05-04 01:03 | 44.88834 | -80.53671 | 24807 ft | 395 kts | 21° |
| 2026-05-04 01:03 | 44.91268 | -80.51842 | 24814 ft | 398 kts | 21° |
| 2026-05-04 01:04 | 44.93780 | -80.50220 | 24806 ft | 395 kts | 15° |
| 2026-05-04 01:04 | 44.96324 | -80.48864 | 24809 ft | 396 kts | 14° |
| 2026-05-04 01:04 | 44.98887 | -80.47373 | 24808 ft | 400 kts | 18° |
| 2026-05-04 01:04 | 45.01416 | -80.45696 | 24806 ft | 402 kts | 19° |
| 2026-05-04 01:05 | 45.03972 | -80.44098 | 24807 ft | 401 kts | 17° |
| 2026-05-04 01:05 | 45.06544 | -80.42561 | 24803 ft | 402 kts | 17° |
| 2026-05-04 01:05 | 45.09115 | -80.40995 | 24805 ft | 403 kts | 17° |
| 2026-05-04 01:05 | 45.11687 | -80.39390 | 24801 ft | 404 kts | 17° |
| 2026-05-04 01:06 | 45.14260 | -80.37785 | 24801 ft | 404 kts | 17° |
| 2026-05-04 01:06 | 45.16838 | -80.36200 | 24802 ft | 404 kts | 17° |
| 2026-05-04 01:06 | 45.19421 | -80.34608 | 24802 ft | 405 kts | 17° |
| 2026-05-04 01:06 | 45.22001 | -80.33005 | 24800 ft | 405 kts | 17° |
| 2026-05-04 01:07 | 45.24558 | -80.31416 | 24801 ft | 405 kts | 17° |
| 2026-05-04 01:07 | 45.27144 | -80.29811 | 24806 ft | 405 kts | 17° |
| 2026-05-04 01:07 | 45.29731 | -80.28207 | 24666 ft | 408 kts | 17° |
| 2026-05-04 01:07 | 45.32361 | -80.26574 | 24157 ft | 412 kts | 17° |
| 2026-05-04 01:08 | 45.34952 | -80.24945 | 23623 ft | 402 kts | 17° |
| 2026-05-04 01:08 | 45.37486 | -80.23365 | 23066 ft | 394 kts | 17° |
| 2026-05-04 01:08 | 45.39972 | -80.21817 | 22548 ft | 386 kts | 17° |
| 2026-05-04 01:08 | 45.42409 | -80.20301 | 22048 ft | 379 kts | 17° |
| 2026-05-04 01:09 | 45.44805 | -80.18797 | 21553 ft | 374 kts | 17° |
| 2026-05-04 01:09 | 45.47173 | -80.17319 | 21067 ft | 369 kts | 17° |
| 2026-05-04 01:09 | 45.49511 | -80.15857 | 20585 ft | 366 kts | 17° |
| 2026-05-04 01:09 | 45.51830 | -80.14397 | 20109 ft | 363 kts | 17° |
| 2026-05-04 01:10 | 45.54136 | -80.12958 | 19635 ft | 360 kts | 17° |
| 2026-05-04 01:10 | 45.56428 | -80.11513 | 19165 ft | 359 kts | 17° |
| 2026-05-04 01:10 | 45.58714 | -80.10081 | 18692 ft | 357 kts | 17° |
| 2026-05-04 01:10 | 45.60960 | -80.08669 | 18229 ft | 357 kts | 18° |
| 2026-05-04 01:11 | 45.63231 | -80.07234 | 17726 ft | 355 kts | 17° |
| 2026-05-04 01:11 | 45.65485 | -80.05816 | 17251 ft | 353 kts | 18° |
| 2026-05-04 01:11 | 45.67727 | -80.04397 | 16788 ft | 351 kts | 18° |
| 2026-05-04 01:11 | 45.69955 | -80.02999 | 16329 ft | 349 kts | 18° |
| 2026-05-04 01:12 | 45.72166 | -80.01594 | 15871 ft | 347 kts | 18° |
| 2026-05-04 01:12 | 45.74378 | -80.00201 | 15415 ft | 346 kts | 18° |
| 2026-05-04 01:12 | 45.76580 | -79.98801 | 14954 ft | 345 kts | 18° |
| 2026-05-04 01:12 | 45.78771 | -79.97422 | 14499 ft | 358 kts | 18° |
| 2026-05-04 01:13 | 45.81157 | -79.95917 | 13997 ft | 376 kts | 19° |
| 2026-05-04 01:13 | 45.83561 | -79.94376 | 13481 ft | 381 kts | 19° |
| 2026-05-04 01:13 | 45.85964 | -79.92845 | 12962 ft | 383 kts | 19° |
| 2026-05-04 01:13 | 45.88437 | -79.91266 | 12441 ft | 384 kts | 19° |
| 2026-05-04 01:14 | 45.90891 | -79.89730 | 11932 ft | 385 kts | 19° |
| 2026-05-04 01:14 | 45.93311 | -79.88177 | 11427 ft | 386 kts | 19° |
| 2026-05-04 01:14 | 45.95749 | -79.86613 | 10917 ft | 379 kts | 19° |
| 2026-05-04 01:14 | 45.98141 | -79.85082 | 10426 ft | 372 kts | 20° |
| 2026-05-04 01:15 | 46.00492 | -79.83588 | 9940 ft | 367 kts | 19° |
| 2026-05-04 01:15 | 46.02818 | -79.82107 | 9438 ft | 363 kts | 20° |
| 2026-05-04 01:15 | 46.05072 | -79.80653 | 8970 ft | 345 kts | 19° |
| 2026-05-04 01:15 | 46.07199 | -79.79282 | 8528 ft | 327 kts | 19° |
| 2026-05-04 01:16 | 46.09236 | -79.77983 | 8115 ft | 313 kts | 18° |
| 2026-05-04 01:16 | 46.11165 | -79.76746 | 7715 ft | 303 kts | 19° |
| 2026-05-04 01:16 | 46.13061 | -79.75533 | 7320 ft | 294 kts | 18° |
| 2026-05-04 01:16 | 46.14909 | -79.74341 | 6935 ft | 288 kts | 18° |
| 2026-05-04 01:17 | 46.16726 | -79.73175 | 6558 ft | 283 kts | 18° |
| 2026-05-04 01:17 | 46.18514 | -79.72026 | 6185 ft | 280 kts | 18° |
| 2026-05-04 01:17 | 46.20282 | -79.70885 | 5805 ft | 276 kts | 18° |
| 2026-05-04 01:17 | 46.22028 | -79.69764 | 5439 ft | 273 kts | 18° |
| 2026-05-04 01:18 | 46.23752 | -79.68643 | 5076 ft | 270 kts | 18° |
| 2026-05-04 01:18 | 46.25461 | -79.67551 | 4723 ft | 268 kts | 18° |
| 2026-05-04 01:18 | 46.27146 | -79.66429 | 4365 ft | 267 kts | 21° |
| 2026-05-04 01:18 | 46.28633 | -79.64794 | 3998 ft | 269 kts | 41° |
| 2026-05-04 01:19 | 46.29801 | -79.62744 | 3646 ft | 262 kts | 56° |
| 2026-05-04 01:19 | 46.30567 | -79.60395 | 3308 ft | 254 kts | 64° |
| 2026-05-04 01:19 | 46.31321 | -79.58130 | 2979 ft | 247 kts | 63° |
| 2026-05-04 01:19 | 46.32030 | -79.55907 | 2752 ft | 236 kts | 65° |
| 2026-05-04 01:20 | 46.32680 | -79.53849 | 2684 ft | 219 kts | 65° |
| 2026-05-04 01:20 | 46.33292 | -79.51939 | 2436 ft | 196 kts | 66° |
| 2026-05-04 01:20 | 46.33828 | -79.50258 | 2188 ft | 174 kts | 67° |
| 2026-05-04 01:20 | 46.34142 | -79.49271 | 2033 ft | 153 kts | 67° |
| 2026-05-04 01:21 | 46.34438 | -79.48346 | 1860 ft | 138 kts | 68° |
| 2026-05-04 01:21 | 46.34814 | -79.47149 | 1637 ft | 125 kts | 66° |
| 2026-05-04 01:21 | 46.35166 | -79.46067 | 1458 ft | 116 kts | 69° |
| 2026-05-04 01:21 | 46.35507 | -79.44956 | 1313 ft | 125 kts | 69° |
| 2026-05-04 01:22 | 46.35868 | -79.43826 | 1177 ft | 117 kts | 69° |
| 2026-05-04 01:22 | 46.36128 | -79.43006 | 1174 ft | 41 kts | 65° |
| 2026-05-04 01:22 | 46.36113 | -79.42856 | 1177 ft | 18 kts | 188° |
| 2026-05-04 01:22 | 46.36002 | -79.42894 | 1177 ft | 15 kts | 166° |
| 2026-05-04 01:23 | 46.35897 | -79.42830 | 1175 ft | 18 kts | 159° |
| 2026-05-04 01:23 | 46.35833 | -79.42822 | 1176 ft | 0 kts | 274° |